Time;durP1;ratioP1;P1;durP2;ratioP2;P2;SDS_P1;SDS_P2;PMS_P1;PMS_P2;Temp;Humidity;BMP_temperature;BMP_pressure;BME280_temperature;BME280_humidity;BME280_pressure;Samples;Min_cycle;Max_cycle;Signal;HPM_P1;HPM_P2
2021/05/15 00:00:09;;;;;;;4.53;1.20;;;9.80;99.90;;;;;;5036077;28;20041;-47
2021/05/15 00:03:15;;;;;;;4.75;0.98;;;9.80;99.90;;;;;;5038448;28;20033;-51
2021/05/15 00:06:19;;;;;;;1.02;0.80;;;9.80;99.90;;;;;;5037994;28;20045;-48
2021/05/15 00:09:23;;;;;;;2.65;0.80;;;9.80;99.90;;;;;;5048180;28;20045;-48
2021/05/15 00:12:27;;;;;;;1.63;0.90;;;9.70;99.90;;;;;;5037117;28;20058;-47
2021/05/15 00:15:32;;;;;;;3.20;1.10;;;9.70;99.90;;;;;;5034275;28;20542;-49
2021/05/15 00:18:36;;;;;;;1.67;1.00;;;9.70;99.90;;;;;;5043243;28;20404;-51
2021/05/15 00:21:41;;;;;;;4.82;2.90;;;9.60;99.90;;;;;;5042203;28;20041;-50
2021/05/15 00:24:45;;;;;;;6.30;1.85;;;9.50;99.90;;;;;;5028206;28;20037;-53
2021/05/15 00:27:49;;;;;;;2.13;1.70;;;9.30;99.90;;;;;;5037129;28;20033;-47
2021/05/15 00:30:54;;;;;;;3.10;1.73;;;9.20;99.90;;;;;;5048490;28;20046;-48
2021/05/15 00:33:58;;;;;;;3.38;2.35;;;9.20;99.90;;;;;;5027879;28;20041;-50
2021/05/15 00:37:02;;;;;;;2.75;1.92;;;9.20;99.90;;;;;;5042531;28;20045;-49
2021/05/15 00:40:11;;;;;;;4.90;3.13;;;9.10;99.90;;;;;;5042014;28;20046;-52
2021/05/15 00:43:15;;;;;;;5.28;2.90;;;9.00;99.90;;;;;;5028628;28;20033;-47
2021/05/15 00:46:20;;;;;;;3.45;1.48;;;9.00;99.90;;;;;;5027219;28;20045;-54
2021/05/15 00:49:24;;;;;;;1.83;1.10;;;9.00;99.90;;;;;;5028184;28;20041;-49
2021/05/15 00:52:34;;;;;;;1.73;1.20;;;9.00;99.90;;;;;;5030015;28;20049;-48
2021/05/15 00:55:38;;;;;;;4.07;1.40;;;8.90;99.90;;;;;;5051259;28;20041;-48
2021/05/15 00:58:44;;;;;;;3.70;1.50;;;8.90;99.90;;;;;;5036535;28;20037;-50
2021/05/15 01:01:49;;;;;;;3.40;1.17;;;9.00;99.90;;;;;;5039999;28;20037;-48
2021/05/15 01:04:53;;;;;;;1.42;1.00;;;9.00;99.90;;;;;;5035358;28;20041;-51
2021/05/15 01:07:58;;;;;;;3.70;1.15;;;9.00;99.90;;;;;;5047952;28;20037;-48
2021/05/15 01:11:02;;;;;;;3.15;1.30;;;8.90;99.90;;;;;;5048546;28;20045;-47
2021/05/15 01:14:06;;;;;;;4.68;0.90;;;8.80;99.90;;;;;;5051122;28;20526;-47
2021/05/15 01:17:11;;;;;;;2.17;1.10;;;8.80;99.90;;;;;;5041409;28;20041;-48
2021/05/15 01:20:15;;;;;;;2.30;0.88;;;8.80;99.90;;;;;;5040012;28;20041;-53
2021/05/15 01:23:19;;;;;;;2.70;0.80;;;8.80;99.90;;;;;;5050263;28;20033;-48
2021/05/15 01:26:25;;;;;;;2.72;0.68;;;8.70;99.90;;;;;;5050505;28;20388;-49
2021/05/15 01:29:30;;;;;;;1.20;0.80;;;8.70;99.90;;;;;;5046478;28;20044;-47
2021/05/15 01:32:37;;;;;;;3.30;1.45;;;8.70;99.90;;;;;;5043391;28;20049;-47
2021/05/15 01:35:41;;;;;;;1.48;0.88;;;8.70;99.90;;;;;;5039482;28;20037;-50
2021/05/15 01:38:45;;;;;;;2.90;0.85;;;8.70;99.90;;;;;;5051005;28;20040;-49
2021/05/15 01:41:50;;;;;;;2.55;1.13;;;8.60;99.90;;;;;;5048794;28;20033;-48
2021/05/15 01:44:54;;;;;;;4.28;1.17;;;8.70;99.90;;;;;;5049228;28;20041;-47
2021/05/15 01:47:58;;;;;;;1.60;0.80;;;8.70;99.90;;;;;;5050070;28;20033;-48
2021/05/15 01:51:05;;;;;;;1.33;0.77;;;8.80;99.90;;;;;;5049493;28;20045;-47
2021/05/15 01:54:10;;;;;;;2.53;0.93;;;8.80;99.90;;;;;;5044006;28;20033;-50
2021/05/15 01:57:14;;;;;;;2.15;0.75;;;9.00;99.90;;;;;;5045110;28;20045;-47
2021/05/15 02:00:19;;;;;;;1.83;0.70;;;9.10;99.90;;;;;;5050305;28;20499;-48
2021/05/15 02:03:25;;;;;;;2.67;0.73;;;9.10;99.90;;;;;;5051188;28;20384;-48
2021/05/15 02:06:29;;;;;;;0.73;0.65;;;9.20;99.90;;;;;;5046547;28;20037;-47
2021/05/15 02:09:33;;;;;;;4.82;0.60;;;9.20;99.90;;;;;;5050401;28;20048;-48
2021/05/15 02:12:37;;;;;;;7.65;1.67;;;9.30;99.90;;;;;;5047640;28;20446;-48
2021/05/15 02:15:41;;;;;;;3.05;1.10;;;9.30;99.90;;;;;;5047756;28;20041;-49
2021/05/15 02:18:46;;;;;;;2.50;1.25;;;9.30;99.90;;;;;;5049476;28;20049;-50
2021/05/15 02:21:50;;;;;;;4.00;1.88;;;9.40;99.90;;;;;;5048901;28;20056;-49
2021/05/15 02:24:54;;;;;;;3.88;1.42;;;9.40;99.90;;;;;;5044659;28;20021;-49
2021/05/15 02:27:58;;;;;;;1.38;0.90;;;9.40;99.90;;;;;;5047690;28;20364;-51
2021/05/15 02:31:04;;;;;;;4.13;0.80;;;9.40;99.90;;;;;;5030442;28;20037;-48
2021/05/15 02:34:08;;;;;;;6.97;0.80;;;9.50;99.90;;;;;;5028569;28;20045;-49
2021/05/15 02:37:12;;;;;;;3.60;0.60;;;9.50;99.90;;;;;;5029796;28;20046;-48
2021/05/15 02:40:18;;;;;;;1.90;0.63;;;9.50;99.90;;;;;;5037412;28;20045;-51
2021/05/15 02:43:22;;;;;;;2.38;0.90;;;9.40;99.90;;;;;;5048579;28;20037;-48
2021/05/15 02:46:27;;;;;;;1.73;0.80;;;9.30;99.90;;;;;;5048905;28;20049;-47
2021/05/15 02:49:31;;;;;;;3.38;1.00;;;9.20;99.90;;;;;;5049949;28;20033;-47
2021/05/15 02:52:35;;;;;;;1.17;1.00;;;9.20;99.90;;;;;;5048960;28;20033;-48
2021/05/15 02:55:39;;;;;;;3.20;1.20;;;9.10;99.90;;;;;;5036219;28;20045;-49
2021/05/15 02:58:43;;;;;;;4.00;1.10;;;9.10;99.90;;;;;;5049996;28;20045;-48
2021/05/15 03:01:47;;;;;;;3.13;1.40;;;9.10;99.90;;;;;;5048654;28;20388;-48
2021/05/15 03:04:51;;;;;;;3.40;1.15;;;9.10;99.90;;;;;;5048302;28;20044;-47
2021/05/15 03:07:56;;;;;;;1.45;0.98;;;9.10;99.90;;;;;;5049366;28;20033;-47
2021/05/15 03:11:00;;;;;;;2.63;1.30;;;9.10;99.90;;;;;;5048982;28;20044;-47
2021/05/15 03:14:04;;;;;;;2.50;1.10;;;9.10;99.90;;;;;;5035568;28;20049;-47
2021/05/15 03:17:10;;;;;;;5.85;1.05;;;9.10;99.90;;;;;;5028501;28;20500;-48
2021/05/15 03:20:20;;;;;;;1.95;1.38;;;9.20;99.90;;;;;;5029437;28;20041;-47
2021/05/15 03:23:26;;;;;;;6.13;1.05;;;9.10;99.90;;;;;;5027916;28;20049;-48
2021/05/15 03:26:30;;;;;;;2.58;1.10;;;9.10;99.90;;;;;;5029979;28;20038;-47
2021/05/15 03:29:34;;;;;;;2.70;1.00;;;9.10;99.90;;;;;;5049270;28;20048;-47
2021/05/15 03:32:41;;;;;;;8.50;1.85;;;9.10;99.90;;;;;;5048194;28;20033;-47
2021/05/15 03:35:46;;;;;;;5.57;1.40;;;9.00;99.90;;;;;;5048767;28;20380;-48
2021/05/15 03:38:49;;;;;;;5.63;2.17;;;8.90;99.90;;;;;;5049804;28;20424;-47
2021/05/15 03:41:55;;;;;;;4.75;1.25;;;8.80;99.90;;;;;;5029317;28;20046;-47
2021/05/15 03:44:59;;;;;;;2.38;1.17;;;8.80;99.90;;;;;;5019681;28;20488;-47
2021/05/15 03:48:03;;;;;;;7.18;2.60;;;8.70;99.90;;;;;;5022266;28;20048;-47
2021/05/15 03:51:07;;;;;;;6.32;1.23;;;8.60;99.90;;;;;;5030674;28;20492;-48
2021/05/15 03:54:11;;;;;;;3.20;1.20;;;8.50;99.90;;;;;;5028129;28;20045;-47
2021/05/15 03:57:15;;;;;;;2.85;1.40;;;8.50;99.90;;;;;;5029736;28;20045;-47
2021/05/15 04:00:20;;;;;;;6.03;1.13;;;8.50;99.90;;;;;;5048754;28;20048;-47
2021/05/15 04:03:24;;;;;;;4.93;1.95;;;8.50;99.90;;;;;;5048067;28;20033;-47
2021/05/15 04:06:28;;;;;;;6.05;2.33;;;8.50;99.90;;;;;;5048716;28;20044;-48
2021/05/15 04:09:32;;;;;;;4.75;1.98;;;8.60;99.90;;;;;;5029455;28;20045;-48
2021/05/15 04:12:39;;;;;;;3.05;1.40;;;8.60;99.90;;;;;;5028364;28;20029;-48
2021/05/15 04:19:00;;;;;;;8.35;3.70;;;8.70;99.90;;;;;;5029345;28;20049;-48
2021/05/15 04:22:04;;;;;;;4.70;1.73;;;8.50;99.90;;;;;;5027965;28;20041;-48
2021/05/15 04:25:09;;;;;;;7.53;2.42;;;8.30;99.90;;;;;;5032672;28;20042;-48
2021/05/15 04:28:14;;;;;;;7.15;2.85;;;8.20;99.90;;;;;;5045213;28;20498;-48
2021/05/15 04:31:18;;;;;;;8.27;1.80;;;8.30;99.90;;;;;;5059497;28;20037;-47
2021/05/15 04:34:23;;;;;;;5.10;2.38;;;8.30;99.90;;;;;;5044995;28;20045;-52
2021/05/15 04:37:27;;;;;;;6.05;2.63;;;8.30;99.90;;;;;;5032704;28;20042;-47
2021/05/15 04:40:32;;;;;;;12.07;2.22;;;8.50;99.90;;;;;;5041026;28;20045;-49
2021/05/15 04:43:36;;;;;;;2.88;1.70;;;8.60;99.90;;;;;;5051393;28;20052;-47
2021/05/15 04:46:41;;;;;;;3.35;2.30;;;9.50;99.90;;;;;;5051998;28;20041;-53
2021/05/15 04:49:45;;;;;;;6.03;2.00;;;10.20;99.90;;;;;;5052203;28;20037;-51
2021/05/15 04:52:50;;;;;;;2.92;1.92;;;10.10;99.90;;;;;;5051150;28;20055;-48
2021/05/15 04:55:55;;;;;;;5.55;2.03;;;9.80;99.90;;;;;;5031296;28;20053;-49
2021/05/15 04:58:59;;;;;;;3.08;1.83;;;9.70;99.90;;;;;;5032295;28;20555;-51
2021/05/15 05:02:03;;;;;;;5.25;1.92;;;9.60;99.90;;;;;;5034551;28;20042;-47
2021/05/15 05:05:08;;;;;;;2.95;2.08;;;9.50;99.90;;;;;;5030582;28;20033;-54
2021/05/15 05:08:12;;;;;;;7.28;1.73;;;9.60;99.90;;;;;;5048648;28;20033;-48
2021/05/15 05:11:16;;;;;;;3.28;1.63;;;9.70;99.90;;;;;;5044036;28;20516;-48
2021/05/15 05:14:21;;;;;;;3.80;1.15;;;11.40;99.90;;;;;;5043343;28;20041;-51
2021/05/15 05:17:26;;;;;;;3.10;1.20;;;15.20;99.90;;;;;;5031866;28;20053;-51
2021/05/15 05:20:30;;;;;;;3.70;1.10;;;16.10;99.90;;;;;;5031070;28;20527;-48
2021/05/15 05:23:34;;;;;;;3.22;1.02;;;16.60;99.90;;;;;;5029917;28;20044;-48
2021/05/15 05:26:39;;;;;;;4.35;1.08;;;16.30;99.90;;;;;;5033423;28;20068;-48
2021/05/15 05:29:43;;;;;;;2.90;1.55;;;17.80;99.90;;;;;;5050942;28;20044;-48
2021/05/15 05:32:49;;;;;;;4.45;1.30;;;17.70;99.90;;;;;;5045556;28;20064;-48
2021/05/15 05:35:54;;;;;;;3.33;1.40;;;15.80;99.90;;;;;;5053077;28;20509;-48
2021/05/15 05:38:58;;;;;;;2.92;1.50;;;15.90;99.90;;;;;;5049388;28;20055;-48
2021/05/15 05:42:03;;;;;;;2.65;1.50;;;14.80;99.90;;;;;;5034183;28;20040;-48
2021/05/15 05:45:09;;;;;;;5.80;1.80;;;15.20;99.90;;;;;;5032540;28;20052;-48
2021/05/15 05:48:18;;;;;;;2.30;1.50;;;16.40;99.90;;;;;;5038132;28;20044;-49
2021/05/15 05:51:22;;;;;;;265.70;11.35;;;15.40;99.90;;;;;;5047414;28;20415;-48
2021/05/15 05:54:26;;;;;;;102.63;5.07;;;13.80;99.90;;;;;;5034701;28;20044;-49
2021/05/15 05:57:30;;;;;;;53.08;3.85;;;12.20;99.90;;;;;;5047863;28;20518;-49
2021/05/15 06:00:33;;;;;;;10.85;2.80;;;11.30;99.90;;;;;;5046544;28;20043;-53
2021/05/15 06:03:38;;;;;;;45.58;4.28;;;11.30;99.90;;;;;;5048771;28;20050;-52
2021/05/15 06:06:42;;;;;;;15.05;3.22;;;11.20;99.90;;;;;;5029688;28;20044;-50
2021/05/15 06:09:46;;;;;;;5.80;3.25;;;11.30;99.90;;;;;;5037891;28;20041;-48
2021/05/15 06:12:50;;;;;;;4.35;2.45;;;11.70;99.90;;;;;;5029379;28;20399;-53
2021/05/15 06:15:54;;;;;;;3.38;2.15;;;13.40;99.90;;;;;;5031015;28;20060;-53
2021/05/15 06:18:58;;;;;;;6.05;2.63;;;15.40;99.90;;;;;;5021445;28;20052;-52
2021/05/15 06:22:02;;;;;;;7.10;2.70;;;15.70;99.90;;;;;;5032720;28;20052;-51
2021/05/15 06:25:08;;;;;;;10.57;2.67;;;16.10;99.90;;;;;;5028119;28;20045;-49
2021/05/15 06:28:12;;;;;;;5.15;1.83;;;17.40;99.90;;;;;;4986501;28;20080;-51
2021/05/15 06:31:17;;;;;;;6.45;1.70;;;18.20;99.90;;;;;;5005587;28;20601;-52
2021/05/15 06:34:21;;;;;;;5.38;1.40;;;19.30;99.90;;;;;;5018855;28;20060;-52
2021/05/15 06:37:26;;;;;;;1.83;1.10;;;20.20;99.90;;;;;;5005703;28;20609;-49
2021/05/15 06:40:30;;;;;;;3.42;1.75;;;20.10;99.90;;;;;;5018242;28;20052;-53
2021/05/15 06:43:34;;;;;;;3.28;1.83;;;17.20;99.90;;;;;;5015771;28;20037;-53
2021/05/15 06:46:38;;;;;;;2.67;2.28;;;16.90;99.90;;;;;;5013019;28;20044;-53
2021/05/15 06:49:45;;;;;;;2.58;2.33;;;16.70;99.90;;;;;;5013040;28;20048;-48
2021/05/15 06:52:50;;;;;;;3.63;2.95;;;15.20;99.90;;;;;;5016488;28;20060;-54
2021/05/15 06:55:54;;;;;;;7.45;3.25;;;14.20;99.90;;;;;;5015650;28;20028;-53
2021/05/15 06:58:58;;;;;;;6.32;3.45;;;14.30;99.90;;;;;;5013932;28;20045;-52
2021/05/15 07:02:03;;;;;;;4.85;3.33;;;14.90;99.90;;;;;;5013031;28;20535;-48
2021/05/15 07:05:08;;;;;;;4.65;3.17;;;15.70;99.90;;;;;;5020519;28;20520;-52
2021/05/15 07:08:13;;;;;;;4.53;3.00;;;15.90;99.90;;;;;;5017602;28;20056;-51
2021/05/15 07:11:18;;;;;;;3.55;2.80;;;17.40;99.90;;;;;;5012009;28;20049;-49
2021/05/15 07:14:22;;;;;;;3.88;2.58;;;18.90;99.90;;;;;;5003483;28;20052;-52
2021/05/15 07:17:27;;;;;;;4.22;2.47;;;21.20;99.90;;;;;;5007454;28;20052;-50
2021/05/15 07:20:31;;;;;;;5.65;2.40;;;22.80;99.90;;;;;;5002501;28;20052;-51
2021/05/15 07:23:35;;;;;;;6.18;2.97;;;21.40;99.90;;;;;;5018890;28;20044;-52
2021/05/15 07:26:39;;;;;;;3.50;2.42;;;22.90;99.90;;;;;;5017905;28;20036;-48
2021/05/15 07:29:43;;;;;;;4.13;2.35;;;23.40;99.90;;;;;;5001593;28;20056;-48
2021/05/15 07:32:48;;;;;;;2.83;2.00;;;25.00;99.00;;;;;;5020318;28;20056;-54
2021/05/15 07:35:52;;;;;;;4.65;2.13;;;24.30;97.70;;;;;;5016035;28;20795;-49
2021/05/15 07:38:56;;;;;;;4.82;2.00;;;23.20;99.20;;;;;;5014966;28;20041;-49
2021/05/15 07:42:00;;;;;;;5.20;2.58;;;21.80;99.90;;;;;;5018050;28;20052;-53
2021/05/15 07:45:05;;;;;;;3.83;2.33;;;21.60;99.90;;;;;;5003958;28;20060;-54
2021/05/15 07:48:10;;;;;;;4.13;1.83;;;23.20;99.90;;;;;;5017671;28;20056;-48
2021/05/15 07:51:21;;;;;;;3.33;2.28;;;24.50;98.60;;;;;;5007958;28;20533;-54
2021/05/15 07:54:26;;;;;;;;;;;23.00;99.60;;;;;;5021819;28;20404;-53
2021/05/15 07:57:30;;;;;;;3.72;2.10;;;22.90;99.60;;;;;;5018067;28;19916;-50
2021/05/15 08:00:34;;;;;;;3.63;1.88;;;24.80;99.00;;;;;;5010905;28;20060;-47
2021/05/15 08:03:38;;;;;;;3.65;1.60;;;27.10;96.60;;;;;;5023525;28;20045;-52
2021/05/15 08:06:42;;;;;;;5.35;2.20;;;28.40;94.90;;;;;;5025414;28;20040;-51
2021/05/15 08:09:46;;;;;;;2.95;1.80;;;26.50;94.20;;;;;;5019263;28;20073;-52
2021/05/15 08:12:50;;;;;;;3.30;1.80;;;24.70;95.30;;;;;;5043391;28;20040;-49
2021/05/15 08:15:54;;;;;;;3.83;1.30;;;25.80;96.20;;;;;;5041384;28;20056;-46
2021/05/15 08:18:58;;;;;;;2.28;0.98;;;28.00;94.50;;;;;;5038862;28;20036;-51
2021/05/15 08:22:03;;;;;;;1.63;1.05;;;29.80;93.80;;;;;;5039737;28;21134;-46
2021/05/15 08:25:09;;;;;;;1.73;1.08;;;31.60;90.50;;;;;;5009385;28;20048;-51
2021/05/15 08:28:14;;;;;;;3.08;1.05;;;32.20;88.90;;;;;;5023237;28;20080;-49
2021/05/15 08:31:18;;;;;;;2.65;0.95;;;32.60;85.40;;;;;;5019268;28;20048;-51
2021/05/15 08:34:23;;;;;;;2.67;0.85;;;33.00;80.00;;;;;;5007547;28;20045;-48
2021/05/15 08:37:27;;;;;;;3.53;0.90;;;33.70;79.00;;;;;;5025929;28;20052;-50
2021/05/15 08:40:32;;;;;;;1.70;0.60;;;33.90;77.10;;;;;;5020728;28;21190;-52
2021/05/15 08:43:41;;;;;;;4.53;0.68;;;33.70;74.60;;;;;;5013655;28;20617;-48
2021/05/15 08:46:47;;;;;;;1.45;0.60;;;33.90;72.60;;;;;;5028959;28;20072;-51
2021/05/15 08:49:53;;;;;;;1.52;0.70;;;34.40;71.00;;;;;;5031858;28;20479;-50
2021/05/15 08:53:00;;;;;;;2.00;0.70;;;35.40;70.40;;;;;;5020810;28;20048;-49
2021/05/15 08:56:05;;;;;;;1.25;0.50;;;33.70;67.80;;;;;;5027927;28;20048;-50
2021/05/15 08:59:10;;;;;;;1.55;0.52;;;30.60;71.90;;;;;;5022577;28;20041;-53
2021/05/15 09:02:15;;;;;;;2.10;0.68;;;32.10;73.00;;;;;;5027960;28;20040;-47
2021/05/15 09:05:21;;;;;;;5.75;0.73;;;32.20;73.20;;;;;;5016072;28;20048;-49
2021/05/15 09:08:26;;;;;;;4.05;0.90;;;32.10;72.90;;;;;;5011922;28;20438;-53
2021/05/15 09:11:30;;;;;;;1.67;0.80;;;30.60;73.80;;;;;;5028439;28;20048;-48
2021/05/15 09:14:34;;;;;;;4.25;0.90;;;28.60;75.20;;;;;;5001468;28;20129;-47
2021/05/15 09:17:46;;;;;;;2.90;0.80;;;28.90;74.70;;;;;;5009970;28;20056;-47
2021/05/15 09:20:56;;;;;;;2.95;0.82;;;30.80;74.00;;;;;;5022161;28;20049;-52
2021/05/15 09:24:05;;;;;;;1.48;0.63;;;33.30;73.70;;;;;;5000081;28;20048;-47
2021/05/15 09:27:12;;;;;;;1.90;0.60;;;34.70;67.00;;;;;;5013327;28;20601;-49
2021/05/15 09:30:17;;;;;;;2.90;0.60;;;28.70;72.40;;;;;;5022082;28;20530;-49
2021/05/15 09:33:22;;;;;;;3.15;0.80;;;28.60;75.60;;;;;;4993903;28;20055;-51
2021/05/15 09:36:34;;;;;;;2.90;0.82;;;27.90;75.60;;;;;;5022697;28;20052;-51
2021/05/15 09:39:39;;;;;;;2.42;0.70;;;26.20;79.30;;;;;;5029553;28;20041;-48
2021/05/15 09:42:48;;;;;;;1.58;0.90;;;25.70;83.10;;;;;;5030749;28;20066;-49
2021/05/15 09:45:54;;;;;;;4.53;0.77;;;27.90;81.20;;;;;;5037411;28;20056;-50
2021/05/15 09:48:58;;;;;;;2.80;0.80;;;30.20;77.30;;;;;;5041991;28;20064;-49
2021/05/15 09:52:07;;;;;;;2.55;0.95;;;31.60;75.50;;;;;;5046878;28;20056;-51
2021/05/15 09:55:12;;;;;;;1.70;0.80;;;31.80;73.10;;;;;;5047482;28;20041;-51
2021/05/15 09:58:16;;;;;;;2.35;0.82;;;29.60;75.00;;;;;;5032125;28;20068;-48
2021/05/15 10:01:20;;;;;;;1.17;0.60;;;27.70;77.10;;;;;;5034938;28;20056;-50
2021/05/15 10:04:26;;;;;;;3.53;0.90;;;26.00;79.20;;;;;;5036254;28;20052;-49
2021/05/15 10:07:33;;;;;;;4.72;0.90;;;24.60;81.30;;;;;;5030196;28;20391;-51
2021/05/15 10:10:37;;;;;;;1.80;0.75;;;23.40;84.60;;;;;;5030994;28;20040;-50
2021/05/15 10:13:42;;;;;;;3.90;0.98;;;23.20;86.50;;;;;;5031981;28;20052;-53
2021/05/15 10:16:47;;;;;;;3.45;0.88;;;22.90;86.90;;;;;;5035812;28;20052;-49
2021/05/15 10:19:51;;;;;;;2.60;0.70;;;22.90;87.10;;;;;;5040636;28;20056;-48
2021/05/15 10:22:55;;;;;;;3.38;1.00;;;22.50;89.20;;;;;;5043198;28;20065;-51
2021/05/15 10:26:05;;;;;;;2.65;0.88;;;22.30;88.80;;;;;;5042303;28;20487;-50
2021/05/15 10:29:10;;;;;;;3.33;1.05;;;22.10;89.00;;;;;;5041270;28;20048;-49
2021/05/15 10:32:31;;;;;;;2.60;0.90;;;22.10;89.40;;;;;;5030444;28;20048;-49
2021/05/15 10:35:40;;;;;;;2.63;0.77;;;23.10;88.70;;;;;;5041732;28;20052;-49
2021/05/15 10:38:45;;;;;;;3.63;0.93;;;25.30;84.90;;;;;;5040795;28;20040;-47
2021/05/15 10:41:50;;;;;;;3.67;1.23;;;26.40;83.10;;;;;;5041554;28;20055;-53
2021/05/15 10:45:01;;;;;;;5.75;1.10;;;25.90;78.60;;;;;;5045973;28;20103;-46
2021/05/15 10:48:22;;;;;;;3.55;0.93;;;24.50;81.10;;;;;;5046210;28;20060;-47
2021/05/15 10:51:39;;;;;;;2.35;0.85;;;24.90;83.50;;;;;;5036248;28;20518;-48
2021/05/15 10:54:51;;;;;;;1.75;0.82;;;26.20;82.20;;;;;;5041961;28;20047;-52
2021/05/15 10:57:55;;;;;;;4.28;0.60;;;29.00;79.90;;;;;;5036782;28;20059;-45
2021/05/15 11:01:08;;;;;;;3.72;0.80;;;31.50;76.70;;;;;;5033214;28;20040;-46
2021/05/15 11:04:33;;;;;;;3.22;0.80;;;31.20;73.00;;;;;;5031210;28;20048;-51
2021/05/15 11:07:40;;;;;;;3.30;0.90;;;29.70;74.90;;;;;;5032800;28;20037;-49
2021/05/15 11:10:43;;;;;;;4.50;0.80;;;28.50;77.80;;;;;;4998373;28;20052;-48
2021/05/15 11:13:51;;;;;;;2.70;0.82;;;27.50;76.30;;;;;;5010937;28;20057;-54
2021/05/15 11:17:19;;;;;;;2.45;0.68;;;27.30;79.60;;;;;;5002350;28;20044;-51
2021/05/15 11:20:24;;;;;;;4.90;1.05;;;26.40;78.00;;;;;;5014126;28;20053;-48
2021/05/15 11:23:28;;;;;;;2.58;1.10;;;24.50;79.30;;;;;;5028405;28;20048;-50
2021/05/15 11:26:46;;;;;;;2.83;0.63;;;23.80;84.80;;;;;;5010812;28;20052;-50
2021/05/15 11:30:08;;;;;;;3.50;1.27;;;22.80;85.20;;;;;;5012615;28;20048;-52
2021/05/15 11:33:17;;;;;;;1.30;0.70;;;23.30;84.70;;;;;;5028199;28;20049;-48
2021/05/15 11:36:23;;;;;;;3.03;0.90;;;22.40;85.20;;;;;;5008751;28;20041;-47
2021/05/15 11:39:27;;;;;;;3.15;0.93;;;20.90;90.00;;;;;;5022146;28;20052;-49
2021/05/15 11:42:32;;;;;;;4.88;1.25;;;20.50;91.90;;;;;;5020393;28;20052;-48
2021/05/15 11:45:37;;;;;;;5.35;0.98;;;21.70;90.80;;;;;;5020611;28;20060;-55
2021/05/15 11:48:43;;;;;;;3.90;1.00;;;24.30;89.40;;;;;;5018937;28;20075;-48
2021/05/15 11:51:57;;;;;;;3.70;0.80;;;24.20;86.40;;;;;;5018375;28;20053;-50
2021/05/15 11:55:03;;;;;;;2.50;0.90;;;26.20;83.70;;;;;;5017968;28;20407;-50
2021/05/15 11:58:07;;;;;;;1.33;0.77;;;26.70;82.50;;;;;;5014191;28;20234;-54
2021/05/15 12:01:31;;;;;;;4.53;1.10;;;26.30;83.00;;;;;;5009540;28;20057;-55
2021/05/15 12:04:34;;;;;;;3.03;1.20;;;24.60;83.50;;;;;;5009703;28;20044;-48
2021/05/15 12:07:47;;;;;;;3.40;1.00;;;24.00;85.50;;;;;;5016998;28;20510;-48
2021/05/15 12:10:51;;;;;;;3.33;0.82;;;23.30;90.00;;;;;;4998457;28;20064;-50
2021/05/15 12:13:55;;;;;;;4.65;0.88;;;24.20;88.40;;;;;;5020179;28;20056;-52
2021/05/15 12:17:29;;;;;;;4.15;1.23;;;24.00;88.40;;;;;;5004798;28;20043;-53
2021/05/15 12:20:45;;;;;;;2.67;0.93;;;24.10;89.20;;;;;;5011911;28;20048;-50
2021/05/15 12:23:49;;;;;;;2.28;0.82;;;23.90;88.50;;;;;;5020818;28;20530;-52
2021/05/15 12:26:53;;;;;;;3.78;0.90;;;24.00;87.80;;;;;;5029161;28;20044;-47
2021/05/15 12:30:00;;;;;;;2.50;0.90;;;22.10;90.60;;;;;;5013813;28;20052;-51
2021/05/15 12:33:05;;;;;;;8.23;1.17;;;23.90;87.70;;;;;;5021701;28;20045;-49
2021/05/15 12:36:09;;;;;;;1.90;0.70;;;23.00;87.50;;;;;;5018222;28;20079;-49
2021/05/15 12:39:13;;;;;;;6.35;1.42;;;24.20;86.10;;;;;;5025207;28;20053;-50
2021/05/15 12:42:28;;;;;;;2.17;0.82;;;23.50;88.40;;;;;;5013398;28;20056;-54
2021/05/15 12:45:36;;;;;;;7.93;1.30;;;23.70;88.90;;;;;;5018758;28;20040;-51
2021/05/15 12:48:55;;;;;;;3.08;1.10;;;23.30;89.20;;;;;;5018715;28;20938;-52
2021/05/15 12:52:10;;;;;;;9.55;1.40;;;22.20;90.10;;;;;;5015118;28;20044;-48
2021/05/15 12:55:18;;;;;;;7.03;1.80;;;21.60;91.00;;;;;;5030292;28;20072;-49
2021/05/15 12:58:24;;;;;;;4.20;1.05;;;22.10;91.00;;;;;;5015441;28;20057;-52
2021/05/15 13:01:29;;;;;;;5.03;1.17;;;23.50;90.20;;;;;;5018011;28;20080;-48
2021/05/15 13:04:37;;;;;;;5.90;1.73;;;24.10;89.30;;;;;;5047489;28;20044;-51
2021/05/15 13:07:44;;;;;;;6.88;1.40;;;24.60;89.30;;;;;;5044016;28;20637;-51
2021/05/15 13:10:48;;;;;;;2.90;0.90;;;24.00;89.40;;;;;;5042662;28;20048;-52
2021/05/15 13:13:53;;;;;;;6.70;1.35;;;24.10;89.40;;;;;;5035013;28;20048;-52
2021/05/15 13:16:57;;;;;;;6.53;1.17;;;24.00;88.00;;;;;;5038894;28;20044;-48
2021/05/15 13:20:01;;;;;;;5.10;1.73;;;23.10;88.20;;;;;;5001903;28;20434;-52
2021/05/15 13:23:06;;;;;;;6.07;1.02;;;23.60;89.50;;;;;;5019681;28;20792;-49
2021/05/15 13:26:10;;;;;;;6.78;1.33;;;23.60;88.70;;;;;;5024049;28;20076;-50
2021/05/15 13:29:14;;;;;;;6.85;1.30;;;23.40;90.10;;;;;;5021299;28;20427;-52
2021/05/15 13:32:18;;;;;;;7.90;1.67;;;21.70;90.60;;;;;;5018684;28;20052;-48
2021/05/15 13:35:23;;;;;;;6.53;1.70;;;21.90;91.20;;;;;;5021838;28;20056;-48
2021/05/15 13:38:27;;;;;;;6.18;1.50;;;22.00;90.40;;;;;;5007324;28;20051;-54
2021/05/15 13:41:33;;;;;;;3.13;1.25;;;21.50;89.70;;;;;;5007284;28;20056;-51
2021/05/15 13:44:37;;;;;;;3.38;1.10;;;20.50;91.40;;;;;;5022361;28;20045;-52
2021/05/15 13:47:41;;;;;;;7.78;1.35;;;19.50;92.70;;;;;;5006218;28;20048;-48
2021/05/15 13:50:46;;;;;;;6.15;1.20;;;20.80;93.50;;;;;;4995824;28;20913;-53
2021/05/15 13:53:51;;;;;;;7.05;1.13;;;19.90;91.40;;;;;;5018734;28;20052;-49
2021/05/15 13:56:57;;;;;;;7.20;1.35;;;19.80;91.00;;;;;;5022349;28;21561;-55
2021/05/15 14:00:05;;;;;;;10.15;1.73;;;19.40;92.30;;;;;;5002362;28;20052;-53
2021/05/15 14:03:16;;;;;;;9.55;1.35;;;19.20;91.80;;;;;;5019937;28;20044;-48
2021/05/15 14:06:20;;;;;;;3.50;1.10;;;19.40;91.40;;;;;;5005531;28;20044;-48
2021/05/15 14:09:24;;;;;;;5.22;1.08;;;19.30;91.30;;;;;;5010953;28;20867;-51
2021/05/15 14:12:30;;;;;;;4.00;1.15;;;19.40;91.90;;;;;;5011623;28;20056;-53
2021/05/15 14:15:34;;;;;;;6.72;1.35;;;19.40;92.20;;;;;;5021431;28;20049;-51
2021/05/15 14:18:39;;;;;;;7.88;1.52;;;19.50;92.20;;;;;;5017665;28;20048;-47
2021/05/15 14:21:43;;;;;;;4.70;1.08;;;19.90;91.20;;;;;;5009616;28;20048;-49
2021/05/15 14:24:48;;;;;;;7.90;1.77;;;20.20;91.70;;;;;;5020127;28;20407;-51
2021/05/15 14:27:52;;;;;;;3.47;1.38;;;20.80;90.80;;;;;;5023510;28;20048;-54
2021/05/15 14:30:57;;;;;;;7.50;1.48;;;21.50;90.70;;;;;;5003171;28;20072;-50
2021/05/15 14:34:01;;;;;;;8.50;1.30;;;20.50;90.30;;;;;;5021662;28;20048;-49
2021/05/15 14:37:06;;;;;;;3.05;0.90;;;19.80;91.10;;;;;;5025613;28;20048;-53
2021/05/15 14:40:11;;;;;;;5.47;1.80;;;19.90;91.50;;;;;;5002837;28;20404;-51
2021/05/15 14:43:16;;;;;;;3.58;0.90;;;20.40;87.30;;;;;;5018640;28;20052;-51
2021/05/15 14:46:21;;;;;;;7.53;1.45;;;20.60;89.80;;;;;;5019487;28;20045;-47
2021/05/15 14:49:25;;;;;;;4.72;1.10;;;21.20;86.60;;;;;;5011967;28;20047;-52
2021/05/15 14:52:30;;;;;;;4.45;1.50;;;21.50;88.50;;;;;;5032596;28;20048;-48
2021/05/15 14:55:35;;;;;;;6.93;1.70;;;21.00;86.50;;;;;;5026674;28;20040;-50
2021/05/15 14:58:40;;;;;;;8.70;1.77;;;21.00;89.20;;;;;;5012262;28;20044;-49
2021/05/15 15:01:45;;;;;;;5.68;1.50;;;19.80;90.30;;;;;;5010992;28;20420;-53
2021/05/15 15:04:49;;;;;;;8.60;1.80;;;20.70;90.50;;;;;;5024984;28;20048;-48
2021/05/15 15:07:54;;;;;;;7.15;1.58;;;20.80;89.60;;;;;;5024851;28;21356;-53
2021/05/15 15:10:58;;;;;;;4.10;1.10;;;21.20;90.60;;;;;;4998603;28;20048;-49
2021/05/15 15:14:03;;;;;;;7.80;1.13;;;21.30;87.30;;;;;;5020511;28;20041;-54
2021/05/15 15:17:07;;;;;;;5.30;1.40;;;21.10;87.40;;;;;;5020701;28;20040;-50
2021/05/15 15:20:12;;;;;;;4.53;1.00;;;20.30;84.40;;;;;;4994429;28;20045;-50
2021/05/15 15:23:18;;;;;;;3.55;0.98;;;19.70;85.50;;;;;;5016843;28;20052;-53
2021/05/15 15:26:23;;;;;;;5.97;1.00;;;20.00;86.80;;;;;;5019883;28;21616;-48
2021/05/15 15:29:29;;;;;;;8.20;1.40;;;20.00;84.30;;;;;;5010991;28;20048;-52
2021/05/15 15:32:35;;;;;;;4.40;0.90;;;20.30;85.80;;;;;;5022567;28;20056;-54
2021/05/15 15:35:40;;;;;;;8.93;2.05;;;20.00;86.80;;;;;;5018231;28;20052;-50
2021/05/15 15:38:44;;;;;;;6.35;1.10;;;19.40;87.40;;;;;;5012880;28;20052;-49
2021/05/15 15:41:49;;;;;;;3.17;1.10;;;18.60;89.40;;;;;;5005991;28;20059;-53
2021/05/15 15:44:53;;;;;;;7.63;1.35;;;19.10;89.40;;;;;;5017539;28;20044;-50
2021/05/15 15:47:57;;;;;;;15.68;2.10;;;18.90;90.20;;;;;;5018742;28;20045;-50
2021/05/15 15:51:02;;;;;;;4.97;1.20;;;19.20;90.50;;;;;;5004113;28;20056;-50
2021/05/15 15:54:06;;;;;;;9.23;1.50;;;19.50;90.40;;;;;;5025257;28;20068;-50
2021/05/15 15:57:11;;;;;;;6.43;0.90;;;19.60;90.50;;;;;;5019430;28;20047;-48
2021/05/15 16:00:15;;;;;;;3.72;1.10;;;19.30;88.30;;;;;;4992423;28;20044;-52
2021/05/15 16:03:20;;;;;;;11.98;1.40;;;18.70;90.10;;;;;;5015191;28;20072;-53
2021/05/15 16:06:25;;;;;;;4.63;1.20;;;18.10;89.50;;;;;;5016996;28;20044;-50
2021/05/15 16:09:30;;;;;;;5.82;1.38;;;18.20;90.50;;;;;;4998720;28;20961;-49
2021/05/15 16:12:35;;;;;;;5.30;1.02;;;17.80;90.80;;;;;;5017398;28;21468;-51